createdAt,value
2023-04-09T00:00:15.779Z,17.50
2023-04-09T00:02:42.614Z,17.20
2023-04-09T00:05:09.212Z,16.17
2023-04-09T00:07:35.646Z,15.88
2023-04-09T00:10:02.241Z,16.13
2023-04-09T00:12:30.249Z,16.25
2023-04-09T00:14:57.375Z,18.65
2023-04-09T00:17:23.778Z,18.63
2023-04-09T00:19:50.213Z,17.25
2023-04-09T00:22:16.843Z,18.45
2023-04-09T00:24:43.234Z,16.10
2023-04-09T00:27:09.597Z,19.17
2023-04-09T00:29:35.940Z,16.15
2023-04-09T00:32:02.482Z,17.27
2023-04-09T00:34:29.022Z,16.75
2023-04-09T00:36:55.679Z,15.32
2023-04-09T00:39:22.076Z,16.95
2023-04-09T00:41:48.522Z,16.35
2023-04-09T00:44:15.108Z,14.38
2023-04-09T00:46:41.668Z,15.93
2023-04-09T00:49:08.035Z,15.75
2023-04-09T00:51:35.793Z,15.35
2023-04-09T00:54:02.242Z,14.75
2023-04-09T00:56:29.840Z,17.02
2023-04-09T00:58:56.284Z,17.10
2023-04-09T01:01:22.760Z,15.80
2023-04-09T01:03:49.354Z,17.60
2023-04-09T01:06:27.830Z,15.07
2023-04-09T01:09:08.799Z,17.60
2023-04-09T01:11:44.918Z,18.13
2023-04-09T01:14:37.779Z,17.55
2023-04-09T01:17:15.398Z,15.48
2023-04-09T01:19:51.139Z,15.80
2023-04-09T01:22:31.611Z,17.30
2023-04-09T01:25:24.126Z,18.63
2023-04-09T01:28:18.173Z,17.27
2023-04-09T01:30:49.088Z,17.73
2023-04-09T01:33:17.558Z,18.90
2023-04-09T01:35:46.323Z,17.42
2023-04-09T01:38:14.241Z,16.65
2023-04-09T01:43:08.697Z,15.38
2023-04-09T01:48:03.313Z,17.23
2023-04-09T01:50:29.813Z,18.75
2023-04-09T01:52:56.745Z,16.60
2023-04-09T01:55:23.164Z,18.38
2023-04-09T01:57:49.592Z,17.52
2023-04-09T02:00:16.502Z,19.33
2023-04-09T02:02:53.331Z,19.45
2023-04-09T02:05:23.114Z,20.52
2023-04-09T02:07:55.840Z,16.65
2023-04-09T02:10:27.038Z,19.83
2023-04-09T02:12:54.904Z,16.63
2023-04-09T02:15:22.223Z,16.77
2023-04-09T02:17:48.717Z,16.65
2023-04-09T02:20:19.173Z,15.73
2023-04-09T02:22:46.580Z,17.88
2023-04-09T02:25:13.037Z,18.80
2023-04-09T02:27:39.584Z,19.08
2023-04-09T02:30:06.620Z,17.73
2023-04-09T02:32:33.096Z,19.40
2023-04-09T02:34:59.590Z,17.60
2023-04-09T02:37:26.111Z,20.02
2023-04-09T02:39:52.653Z,25.20
2023-04-09T02:42:19.100Z,24.17
2023-04-09T02:44:45.477Z,21.15
2023-04-09T02:47:11.913Z,21.25
2023-04-09T02:49:38.394Z,22.05
2023-04-09T02:52:04.931Z,21.02
2023-04-09T02:54:31.390Z,20.52
2023-04-09T02:56:57.894Z,19.63
2023-04-09T02:59:24.333Z,20.92
2023-04-09T03:01:50.843Z,18.58
2023-04-09T03:04:17.309Z,20.13
2023-04-09T03:06:43.996Z,20.88
2023-04-09T03:09:10.437Z,19.70
2023-04-09T03:11:36.809Z,20.30
2023-04-09T03:14:03.228Z,19.90
2023-04-09T03:16:29.826Z,23.38
2023-04-09T03:18:56.196Z,18.90
2023-04-09T03:21:22.646Z,19.67
2023-04-09T03:23:49.049Z,17.08
2023-04-09T03:26:15.440Z,17.45
2023-04-09T03:28:41.811Z,17.13
2023-04-09T03:31:08.240Z,18.23
2023-04-09T03:33:34.692Z,19.88
2023-04-09T03:36:01.186Z,21.20
2023-04-09T03:38:27.623Z,18.08
2023-04-09T03:40:53.990Z,18.42
2023-04-09T03:43:20.426Z,18.15
2023-04-09T03:45:46.834Z,18.52
2023-04-09T03:48:13.223Z,18.58
2023-04-09T03:50:40.827Z,21.65
2023-04-09T03:53:07.509Z,23.75
2023-04-09T03:55:34.212Z,20.88
2023-04-09T03:58:00.898Z,22.13
2023-04-09T04:00:27.393Z,25.00
2023-04-09T04:02:53.887Z,24.40
2023-04-09T04:05:24.179Z,27.10
2023-04-09T04:07:50.538Z,19.63
2023-04-09T04:10:16.984Z,23.40
2023-04-09T04:12:43.351Z,22.67
2023-04-09T04:15:10.119Z,21.23
2023-04-09T04:17:36.506Z,25.25
2023-04-09T04:20:03.097Z,23.60
2023-04-09T04:22:29.552Z,25.55
2023-04-09T04:24:56.098Z,24.20
2023-04-09T04:27:22.477Z,21.33
2023-04-09T04:29:48.863Z,25.48
2023-04-09T04:32:15.433Z,20.00
2023-04-09T04:34:41.852Z,18.85
2023-04-09T04:37:08.628Z,15.60
2023-04-09T04:39:35.012Z,20.13
2023-04-09T04:42:01.466Z,23.50
2023-04-09T04:44:27.998Z,23.33
2023-04-09T04:46:54.444Z,17.52
2023-04-09T04:49:20.827Z,18.77
2023-04-09T04:51:47.294Z,16.30
2023-04-09T04:54:13.783Z,15.02
2023-04-09T04:56:40.303Z,15.18
2023-04-09T04:59:06.843Z,15.77
2023-04-09T05:01:33.413Z,13.30
2023-04-09T05:04:00.242Z,14.18
2023-04-09T05:06:28.001Z,12.90
2023-04-09T05:08:57.951Z,13.52
2023-04-09T05:11:25.388Z,11.88
2023-04-09T05:13:51.887Z,14.90
2023-04-09T05:16:19.630Z,14.63
2023-04-09T05:18:46.593Z,13.00
2023-04-09T05:21:13.224Z,13.50
2023-04-09T05:23:39.633Z,13.88
2023-04-09T05:26:06.022Z,13.85
2023-04-09T05:28:32.907Z,12.48
2023-04-09T05:30:59.683Z,12.98
2023-04-09T05:33:26.271Z,12.45
2023-04-09T05:35:52.750Z,13.93
2023-04-09T05:38:19.176Z,14.50
2023-04-09T05:40:45.806Z,12.80
2023-04-09T05:43:12.252Z,14.52
2023-04-09T05:45:38.901Z,13.02
2023-04-09T05:48:05.895Z,14.88
2023-04-09T05:50:38.181Z,15.68
2023-04-09T05:55:40.580Z,16.55
2023-04-09T05:58:06.977Z,14.63
2023-04-09T06:00:33.617Z,12.95
2023-04-09T06:03:00.151Z,12.20
2023-04-09T06:05:26.698Z,14.75
2023-04-09T06:07:53.047Z,12.32
2023-04-09T06:10:19.510Z,14.40
2023-04-09T06:12:45.957Z,11.82
2023-04-09T06:15:12.280Z,12.98
2023-04-09T06:17:38.802Z,11.35
2023-04-09T06:20:06.214Z,12.25
2023-04-09T06:22:32.682Z,11.68
2023-04-09T06:24:59.829Z,17.08
2023-04-09T06:27:26.579Z,13.32
2023-04-09T06:29:53.022Z,15.50
2023-04-09T06:32:19.402Z,15.68
2023-04-09T06:34:45.867Z,18.25
2023-04-09T06:37:12.532Z,17.83
2023-04-09T06:39:44.815Z,16.10
2023-04-09T06:42:20.636Z,15.75
2023-04-09T06:44:47.523Z,16.95
2023-04-09T06:47:13.876Z,17.80
2023-04-09T06:49:40.396Z,15.02
2023-04-09T06:52:07.352Z,18.10
2023-04-09T06:54:33.766Z,16.90
2023-04-09T06:57:00.206Z,17.48
2023-04-09T06:59:26.709Z,16.23
2023-04-09T07:01:54.661Z,20.77
2023-04-09T07:04:21.562Z,22.02
2023-04-09T07:06:48.042Z,19.52
2023-04-09T07:09:15.348Z,18.33
2023-04-09T07:11:41.836Z,18.38
2023-04-09T07:14:08.231Z,16.65
2023-04-09T07:16:34.718Z,16.17
2023-04-09T07:19:01.429Z,16.13
2023-04-09T07:21:28.263Z,14.40
2023-04-09T07:23:54.996Z,14.70
2023-04-09T07:26:21.689Z,13.13
2023-04-09T07:28:48.097Z,13.88
2023-04-09T07:31:14.467Z,15.13
2023-04-09T07:33:40.900Z,11.75
2023-04-09T07:36:07.298Z,12.05
2023-04-09T07:38:34.784Z,13.20
2023-04-09T07:41:01.396Z,12.13
2023-04-09T07:43:27.921Z,11.18
2023-04-09T07:45:54.536Z,13.32
2023-04-09T07:48:21.185Z,10.95
2023-04-09T07:50:48.261Z,10.85
2023-04-09T07:53:14.699Z,12.00
2023-04-09T07:55:41.328Z,11.35
2023-04-09T07:58:07.687Z,11.23
2023-04-09T08:00:34.130Z,11.77
2023-04-09T08:03:01.810Z,12.77
2023-04-09T08:05:28.882Z,10.20
2023-04-09T08:10:22.070Z,11.40
2023-04-09T08:12:49.192Z,9.85
2023-04-09T08:15:16.009Z,11.35
2023-04-09T08:17:42.453Z,10.35
2023-04-09T08:20:09.346Z,9.95
2023-04-09T08:22:35.797Z,10.75
2023-04-09T08:25:02.891Z,9.60
2023-04-09T08:27:29.594Z,11.63
2023-04-09T08:29:56.065Z,10.98
2023-04-09T08:32:22.644Z,10.20
2023-04-09T08:34:49.214Z,10.38
2023-04-09T08:37:16.693Z,12.00
2023-04-09T08:39:43.096Z,13.85
2023-04-09T08:42:12.476Z,12.32
2023-04-09T08:44:38.955Z,12.55
2023-04-09T08:47:10.132Z,12.48
2023-04-09T08:49:36.651Z,11.90
2023-04-09T08:52:03.442Z,11.68
2023-04-09T08:54:30.059Z,11.13
2023-04-09T08:56:57.547Z,9.95
2023-04-09T08:59:23.980Z,10.38
2023-04-09T09:02:06.832Z,11.52
2023-04-09T09:04:47.792Z,11.38
2023-04-09T09:07:15.555Z,11.70
2023-04-09T09:09:59.216Z,11.20
2023-04-09T09:12:41.093Z,11.13
2023-04-09T09:15:27.770Z,10.88
2023-04-09T09:17:59.205Z,9.25
2023-04-09T09:20:27.168Z,10.90
2023-04-09T09:22:56.517Z,10.68
2023-04-09T09:25:24.792Z,9.70
2023-04-09T09:27:52.270Z,8.45
2023-04-09T09:30:27.167Z,10.30
2023-04-09T09:32:55.352Z,10.55
2023-04-09T09:35:22.288Z,8.77
2023-04-09T09:38:01.211Z,9.23
2023-04-09T09:40:28.757Z,10.38
2023-04-09T09:45:24.437Z,9.68
2023-04-09T09:47:52.891Z,8.75
2023-04-09T09:50:24.026Z,8.35
2023-04-09T09:52:53.207Z,8.88
2023-04-09T09:55:23.128Z,9.68
2023-04-09T09:57:51.591Z,7.25
2023-04-09T10:00:19.399Z,7.43
2023-04-09T10:02:56.639Z,7.68
2023-04-09T10:05:26.785Z,7.65
2023-04-09T10:07:57.865Z,7.40
2023-04-09T10:10:25.939Z,6.47
2023-04-09T10:12:52.711Z,7.30
2023-04-09T10:15:19.781Z,8.52
2023-04-09T10:17:46.620Z,8.10
2023-04-09T10:20:22.803Z,9.10
2023-04-09T10:22:51.748Z,9.52
2023-04-09T10:25:18.416Z,9.63
2023-04-09T10:27:46.181Z,10.07
2023-04-09T10:30:35.671Z,10.93
2023-04-09T10:33:10.204Z,11.02
2023-04-09T10:35:37.172Z,11.57
2023-04-09T10:38:03.629Z,10.45
2023-04-09T10:40:30.258Z,9.60
2023-04-09T10:42:58.184Z,10.23
2023-04-09T10:45:26.217Z,9.80
2023-04-09T10:47:53.549Z,9.95
2023-04-09T10:50:32.612Z,9.90
2023-04-09T10:53:00.607Z,10.65
2023-04-09T10:55:38.097Z,9.38
2023-04-09T10:58:11.935Z,10.43
2023-04-09T11:00:44.153Z,8.80
2023-04-09T11:03:30.479Z,9.68
2023-04-09T11:06:01.746Z,9.90
2023-04-09T11:08:30.332Z,8.35
2023-04-09T11:10:58.477Z,7.65
2023-04-09T11:13:25.053Z,8.18
2023-04-09T11:15:51.565Z,8.40
2023-04-09T11:18:24.924Z,8.40
2023-04-09T11:20:59.446Z,9.00
2023-04-09T11:23:26.926Z,7.57
2023-04-09T11:28:20.998Z,8.15
2023-04-09T11:30:49.993Z,7.97
2023-04-09T11:33:19.150Z,8.95
2023-04-09T11:35:46.546Z,7.53
2023-04-09T11:38:13.116Z,9.32
2023-04-09T11:40:48.091Z,9.38
2023-04-09T11:43:20.992Z,8.48
2023-04-09T11:45:48.540Z,7.70
2023-04-09T11:48:18.134Z,7.60
2023-04-09T11:50:44.770Z,7.43
2023-04-09T11:53:21.998Z,8.05
2023-04-09T11:55:51.505Z,7.40
2023-04-09T11:58:18.308Z,7.43
2023-04-09T12:00:45.486Z,6.93
2023-04-09T12:03:12.277Z,7.97
2023-04-09T12:05:40.669Z,7.05
2023-04-09T12:08:08.821Z,6.88
2023-04-09T12:10:37.511Z,7.18
2023-04-09T12:13:06.966Z,7.80
2023-04-09T12:15:34.971Z,6.82
2023-04-09T12:18:01.860Z,8.32
2023-04-09T12:20:39.625Z,7.47
2023-04-09T12:23:07.296Z,8.43
2023-04-09T12:25:39.169Z,7.28
2023-04-09T12:28:07.286Z,7.53
2023-04-09T12:30:34.329Z,8.35
2023-04-09T12:33:01.447Z,7.72
2023-04-09T12:35:28.308Z,9.07
2023-04-09T12:37:54.829Z,6.80
2023-04-09T12:40:21.536Z,7.15
2023-04-09T12:42:48.332Z,7.18
2023-04-09T12:45:16.566Z,6.65
2023-04-09T12:47:43.769Z,7.25
2023-04-09T12:50:11.707Z,8.05
2023-04-09T12:52:38.570Z,6.90
2023-04-09T12:55:06.241Z,7.65
2023-04-09T12:57:33.009Z,6.25
2023-04-09T13:00:00.175Z,7.55
2023-04-09T13:02:26.905Z,6.22
2023-04-09T13:04:53.698Z,7.90
2023-04-09T13:07:20.545Z,7.30
2023-04-09T13:09:48.913Z,7.00
2023-04-09T13:12:16.228Z,7.20
2023-04-09T13:17:13.434Z,7.63
2023-04-09T13:19:42.136Z,5.93
2023-04-09T13:22:09.416Z,6.97
2023-04-09T13:24:36.491Z,6.85
2023-04-09T13:27:07.000Z,6.75
2023-04-09T13:29:33.430Z,7.97
2023-04-09T13:32:02.719Z,6.85
2023-04-09T13:34:29.260Z,6.90
2023-04-09T13:36:55.760Z,7.05
2023-04-09T13:39:22.177Z,7.68
2023-04-09T13:41:48.719Z,7.07
2023-04-09T13:44:15.577Z,7.85
2023-04-09T13:46:42.139Z,6.80
2023-04-09T13:49:08.764Z,7.07
2023-04-09T13:51:35.202Z,6.85
2023-04-09T13:54:02.790Z,6.78
2023-04-09T13:56:31.318Z,7.50
2023-04-09T13:58:57.922Z,7.78
2023-04-09T14:01:26.193Z,6.93
2023-04-09T14:03:52.948Z,7.28
2023-04-09T14:06:19.769Z,7.78
2023-04-09T14:08:46.165Z,6.57
2023-04-09T14:11:14.964Z,6.15
2023-04-09T14:13:41.735Z,5.80
2023-04-09T14:16:09.130Z,6.47
2023-04-09T14:18:35.642Z,7.35
2023-04-09T14:21:02.171Z,10.20
2023-04-09T14:23:28.561Z,7.95
2023-04-09T14:25:54.987Z,6.85
2023-04-09T14:28:21.470Z,7.57
2023-04-09T14:30:48.456Z,6.85
2023-04-09T14:33:14.956Z,6.05
2023-04-09T14:35:41.371Z,7.20
2023-04-09T14:38:09.899Z,6.90
2023-04-09T14:40:36.600Z,7.25
2023-04-09T14:43:03.193Z,7.13
2023-04-09T14:45:30.869Z,10.88
2023-04-09T14:47:57.546Z,7.35
2023-04-09T14:50:24.109Z,9.60
2023-04-09T14:52:50.718Z,7.93
2023-04-09T14:55:17.169Z,6.95
2023-04-09T14:57:43.681Z,7.30
2023-04-09T15:00:11.965Z,8.27
2023-04-09T15:02:38.691Z,8.25
2023-04-09T15:05:05.753Z,10.30
2023-04-09T15:07:32.210Z,8.10
2023-04-09T15:10:01.827Z,6.97
2023-04-09T15:12:30.351Z,8.50
2023-04-09T15:14:57.374Z,7.60
2023-04-09T15:17:24.497Z,7.28
2023-04-09T15:19:52.957Z,8.32
2023-04-09T15:22:19.925Z,7.13
2023-04-09T15:24:46.370Z,8.10
2023-04-09T15:27:12.813Z,7.45
2023-04-09T15:29:39.261Z,8.73
2023-04-09T15:32:05.979Z,6.90
2023-04-09T15:34:32.776Z,6.00
2023-04-09T15:36:59.291Z,7.82
2023-04-09T15:39:28.302Z,7.97
2023-04-09T15:41:58.609Z,8.65
2023-04-09T15:44:25.994Z,7.80
2023-04-09T15:49:19.667Z,8.40
2023-04-09T15:51:46.487Z,8.02
2023-04-09T15:54:13.050Z,7.60
2023-04-09T15:56:40.410Z,7.72
2023-04-09T15:59:08.317Z,9.70
2023-04-09T16:01:36.282Z,7.03
2023-04-09T16:04:03.930Z,7.53
2023-04-09T16:08:57.135Z,8.77
2023-04-09T16:11:23.755Z,9.98
2023-04-09T16:13:50.540Z,7.72
2023-04-09T16:16:17.078Z,7.60
2023-04-09T16:18:43.708Z,7.15
2023-04-09T16:21:10.504Z,7.47
2023-04-09T16:23:37.089Z,7.93
2023-04-09T16:26:03.828Z,7.25
2023-04-09T16:28:30.451Z,9.38
2023-04-09T16:30:57.063Z,7.97
2023-04-09T16:33:23.807Z,10.20
2023-04-09T16:35:50.378Z,8.60
2023-04-09T16:38:16.830Z,8.30
2023-04-09T16:40:43.920Z,8.15
2023-04-09T16:43:10.354Z,7.07
2023-04-09T16:45:37.049Z,7.78
2023-04-09T16:48:06.171Z,7.75
2023-04-09T16:50:32.909Z,7.85
2023-04-09T16:53:01.010Z,6.22
2023-04-09T16:55:27.500Z,7.63
2023-04-09T16:57:55.935Z,7.15
2023-04-09T17:00:22.667Z,7.13
2023-04-09T17:02:49.611Z,7.68
2023-04-09T17:05:17.879Z,9.20
2023-04-09T17:07:44.550Z,6.65
2023-04-09T17:10:11.484Z,7.60
2023-04-09T17:12:38.180Z,8.65
2023-04-09T17:15:04.989Z,9.40
2023-04-09T17:17:31.451Z,6.75
2023-04-09T17:19:59.898Z,6.82
2023-04-09T17:22:26.307Z,7.50
2023-04-09T17:24:52.846Z,7.15
2023-04-09T17:27:19.690Z,7.70
2023-04-09T17:29:46.146Z,7.00
2023-04-09T17:32:12.542Z,6.95
2023-04-09T17:34:38.998Z,7.32
2023-04-09T17:37:05.387Z,7.10
2023-04-09T17:39:31.846Z,7.68
2023-04-09T17:42:00.549Z,7.35
2023-04-09T17:44:27.046Z,7.55
2023-04-09T17:46:53.885Z,7.72
2023-04-09T17:49:22.335Z,7.57
2023-04-09T17:51:48.948Z,8.20
2023-04-09T17:54:15.455Z,8.05
2023-04-09T17:56:41.902Z,8.20
2023-04-09T17:59:08.362Z,8.52
2023-04-09T18:01:34.986Z,7.43
2023-04-09T18:04:02.068Z,8.38
2023-04-09T18:06:29.229Z,7.40
2023-04-09T18:08:55.844Z,8.45
2023-04-09T18:11:23.543Z,7.95
2023-04-09T18:13:51.113Z,7.30
2023-04-09T18:16:19.410Z,7.82
2023-04-09T18:18:46.124Z,7.00
2023-04-09T18:21:12.534Z,17.73
2023-04-09T18:23:40.351Z,46.75
2023-04-09T18:26:07.763Z,23.17
2023-04-09T18:28:35.084Z,11.68
2023-04-09T18:31:02.021Z,9.93
2023-04-09T18:33:28.548Z,37.90
2023-04-09T18:35:55.156Z,22.80
2023-04-09T18:38:21.755Z,21.83
2023-04-09T18:40:48.213Z,8.75
2023-04-09T18:43:14.644Z,8.15
2023-04-09T18:45:41.335Z,9.75
2023-04-09T18:48:08.905Z,8.73
2023-04-09T18:50:36.100Z,10.65
2023-04-09T18:53:03.651Z,8.65
2023-04-09T18:55:30.749Z,8.15
2023-04-09T18:57:57.457Z,8.55
2023-04-09T19:00:24.088Z,10.00
2023-04-09T19:02:50.800Z,8.27
2023-04-09T19:05:17.494Z,9.25
2023-04-09T19:07:43.926Z,9.20
2023-04-09T19:10:10.807Z,11.23
2023-04-09T19:12:37.766Z,9.88
2023-04-09T19:15:04.955Z,9.75
2023-04-09T19:17:32.191Z,10.30
2023-04-09T19:19:58.681Z,10.73
2023-04-09T19:22:25.173Z,9.38
2023-04-09T19:24:51.710Z,13.60
2023-04-09T19:27:18.647Z,11.43
2023-04-09T19:29:46.584Z,9.88
2023-04-09T19:32:13.320Z,11.05
2023-04-09T19:34:39.814Z,10.88
2023-04-09T19:37:06.625Z,10.05
2023-04-09T19:39:33.141Z,10.35
2023-04-09T19:41:59.540Z,10.13
2023-04-09T19:44:26.095Z,11.43
2023-04-09T19:46:52.808Z,10.45
2023-04-09T19:49:19.470Z,9.68
2023-04-09T19:51:45.799Z,10.18
2023-04-09T19:54:12.267Z,10.48
2023-04-09T19:56:38.891Z,9.57
2023-04-09T19:59:05.413Z,10.82
2023-04-09T20:01:32.425Z,10.02
2023-04-09T20:03:59.350Z,10.23
2023-04-09T20:06:27.091Z,11.00
2023-04-09T20:08:54.262Z,11.05
2023-04-09T20:11:21.222Z,11.40
2023-04-09T20:13:48.004Z,11.15
2023-04-09T20:16:15.366Z,11.20
2023-04-09T20:18:41.770Z,11.98
2023-04-09T20:21:08.765Z,14.65
2023-04-09T20:23:35.410Z,12.23
2023-04-09T20:26:02.652Z,12.55
2023-04-09T20:28:29.692Z,12.35
2023-04-09T20:30:56.594Z,12.57
2023-04-09T20:33:23.142Z,13.00
2023-04-09T20:35:50.356Z,20.05
2023-04-09T20:38:20.461Z,17.58
2023-04-09T20:40:47.187Z,11.18
2023-04-09T20:43:13.788Z,11.18
2023-04-09T20:45:40.257Z,13.13
2023-04-09T20:48:06.780Z,11.90
2023-04-09T20:50:33.293Z,12.77
2023-04-09T20:52:59.687Z,11.70
2023-04-09T20:55:26.337Z,11.10
2023-04-09T20:57:56.420Z,10.55
2023-04-09T21:00:23.078Z,11.05
2023-04-09T21:02:49.842Z,12.68
2023-04-09T21:05:23.981Z,12.55
2023-04-09T21:07:52.339Z,11.15
2023-04-09T21:10:18.795Z,11.73
2023-04-09T21:12:45.233Z,12.73
2023-04-09T21:15:11.604Z,13.25
2023-04-09T21:17:38.135Z,13.07
2023-04-09T21:20:04.963Z,13.73
2023-04-09T21:22:31.941Z,11.38
2023-04-09T21:24:58.372Z,13.27
2023-04-09T21:27:24.784Z,12.30
2023-04-09T21:29:51.214Z,12.77
2023-04-09T21:32:17.645Z,13.65
2023-04-09T21:34:44.120Z,14.77
2023-04-09T21:37:10.995Z,12.35
2023-04-09T21:39:38.531Z,12.02
2023-04-09T21:42:06.355Z,12.85
2023-04-09T21:47:01.483Z,11.38
2023-04-09T21:51:55.633Z,13.43
2023-04-09T21:56:48.428Z,11.55
2023-04-09T21:59:14.857Z,11.95
2023-04-09T22:01:41.271Z,12.98
2023-04-09T22:04:07.823Z,12.98
2023-04-09T22:06:34.318Z,13.88
2023-04-09T22:09:01.693Z,13.30
2023-04-09T22:11:28.781Z,12.40
2023-04-09T22:13:58.589Z,11.60
2023-04-09T22:16:26.131Z,12.73
2023-04-09T22:18:53.886Z,12.82
2023-04-09T22:21:20.751Z,12.70
2023-04-09T22:23:47.393Z,11.85
2023-04-09T22:26:13.853Z,12.88
2023-04-09T22:28:40.342Z,11.95
2023-04-09T22:31:07.106Z,14.30
2023-04-09T22:33:33.606Z,13.88
2023-04-09T22:36:00.218Z,13.40
2023-04-09T22:38:26.967Z,13.60
2023-04-09T22:40:53.666Z,13.50
2023-04-09T22:43:20.085Z,12.93
2023-04-09T22:46:04.906Z,12.90
2023-04-09T22:48:33.884Z,14.25
2023-04-09T22:51:00.543Z,11.38
2023-04-09T22:53:26.958Z,12.98
2023-04-09T22:55:54.739Z,12.20
2023-04-09T22:58:21.207Z,12.63
2023-04-09T23:00:47.705Z,12.77
2023-04-09T23:03:14.536Z,11.50
2023-04-09T23:05:41.388Z,13.43
2023-04-09T23:08:07.818Z,11.85
2023-04-09T23:10:34.453Z,13.48
2023-04-09T23:13:01.085Z,11.80
2023-04-09T23:15:28.344Z,15.52
2023-04-09T23:17:54.981Z,12.27
2023-04-09T23:20:21.562Z,12.48
2023-04-09T23:22:48.640Z,15.77
2023-04-09T23:25:16.336Z,11.98
2023-04-09T23:27:42.795Z,13.98
2023-04-09T23:30:10.261Z,10.35
2023-04-09T23:32:36.925Z,12.02
2023-04-09T23:35:04.144Z,12.60
2023-04-09T23:37:31.043Z,11.60
2023-04-09T23:39:57.450Z,12.80
2023-04-09T23:42:24.015Z,11.23
2023-04-09T23:44:50.474Z,10.88
2023-04-09T23:47:17.347Z,13.10
2023-04-09T23:49:43.896Z,12.48
2023-04-09T23:52:10.513Z,13.68
2023-04-09T23:54:36.965Z,14.40
2023-04-09T23:57:03.654Z,14.50
2023-04-09T23:59:33.790Z,14.25
